sensor_id;sensor_type;location;lat;lon;timestamp;P1;durP1;ratioP1;P2;durP2;ratioP2
62463;SDS011;48512;48.552;9.380;2023-03-20T00:01:23;4.15;;;2.88;;
62463;SDS011;48512;48.552;9.380;2023-03-20T00:03:53;4.93;;;2.50;;
62463;SDS011;48512;48.552;9.380;2023-03-20T00:06:22;4.38;;;2.67;;
62463;SDS011;48512;48.552;9.380;2023-03-20T00:08:51;4.50;;;2.50;;
62463;SDS011;48512;48.552;9.380;2023-03-20T00:13:56;4.00;;;2.00;;
62463;SDS011;48512;48.552;9.380;2023-03-20T00:16:26;4.57;;;2.70;;
62463;SDS011;48512;48.552;9.380;2023-03-20T00:18:57;3.40;;;2.00;;
62463;SDS011;48512;48.552;9.380;2023-03-20T00:21:24;3.00;;;2.05;;
62463;SDS011;48512;48.552;9.380;2023-03-20T00:23:51;2.58;;;1.80;;
62463;SDS011;48512;48.552;9.380;2023-03-20T00:26:19;2.55;;;1.85;;
62463;SDS011;48512;48.552;9.380;2023-03-20T00:28:49;2.53;;;1.60;;
62463;SDS011;48512;48.552;9.380;2023-03-20T00:31:25;2.38;;;1.70;;
62463;SDS011;48512;48.552;9.380;2023-03-20T00:33:55;2.10;;;1.73;;
62463;SDS011;48512;48.552;9.380;2023-03-20T00:36:23;2.05;;;1.60;;
62463;SDS011;48512;48.552;9.380;2023-03-20T00:38:49;2.33;;;1.42;;
62463;SDS011;48512;48.552;9.380;2023-03-20T00:46:52;2.10;;;1.60;;
62463;SDS011;48512;48.552;9.380;2023-03-20T00:49:28;1.45;;;1.25;;
62463;SDS011;48512;48.552;9.380;2023-03-20T00:52:00;1.40;;;1.30;;
62463;SDS011;48512;48.552;9.380;2023-03-20T00:54:28;1.70;;;1.30;;
62463;SDS011;48512;48.552;9.380;2023-03-20T00:56:58;2.17;;;1.40;;
62463;SDS011;48512;48.552;9.380;2023-03-20T00:59:28;1.48;;;1.30;;
62463;SDS011;48512;48.552;9.380;2023-03-20T01:04:23;2.35;;;1.48;;
62463;SDS011;48512;48.552;9.380;2023-03-20T01:06:52;2.15;;;1.25;;
62463;SDS011;48512;48.552;9.380;2023-03-20T01:09:19;1.52;;;1.13;;
62463;SDS011;48512;48.552;9.380;2023-03-20T01:11:45;1.10;;;0.95;;
62463;SDS011;48512;48.552;9.380;2023-03-20T01:14:12;1.67;;;1.20;;
62463;SDS011;48512;48.552;9.380;2023-03-20T01:16:41;1.83;;;1.20;;
62463;SDS011;48512;48.552;9.380;2023-03-20T01:19:09;3.75;;;1.33;;
62463;SDS011;48512;48.552;9.380;2023-03-20T01:21:38;1.73;;;1.25;;
62463;SDS011;48512;48.552;9.380;2023-03-20T01:24:04;2.42;;;1.20;;
62463;SDS011;48512;48.552;9.380;2023-03-20T01:26:40;2.20;;;1.30;;
62463;SDS011;48512;48.552;9.380;2023-03-20T01:31:44;1.30;;;1.20;;
62463;SDS011;48512;48.552;9.380;2023-03-20T01:34:10;1.20;;;1.10;;
62463;SDS011;48512;48.552;9.380;2023-03-20T01:36:37;1.20;;;1.10;;
62463;SDS011;48512;48.552;9.380;2023-03-20T01:39:04;1.13;;;0.93;;
62463;SDS011;48512;48.552;9.380;2023-03-20T01:41:30;2.22;;;1.25;;
62463;SDS011;48512;48.552;9.380;2023-03-20T01:43:57;1.33;;;1.05;;
62463;SDS011;48512;48.552;9.380;2023-03-20T01:46:31;1.67;;;1.00;;
62463;SDS011;48512;48.552;9.380;2023-03-20T01:51:46;2.42;;;1.13;;
62463;SDS011;48512;48.552;9.380;2023-03-20T01:56:59;1.30;;;0.98;;
62463;SDS011;48512;48.552;9.380;2023-03-20T01:59:54;0.70;;;0.70;;
62463;SDS011;48512;48.552;9.380;2023-03-20T02:02:27;1.05;;;0.82;;
62463;SDS011;48512;48.552;9.380;2023-03-20T02:04:57;3.17;;;0.93;;
62463;SDS011;48512;48.552;9.380;2023-03-20T02:07:28;1.25;;;0.90;;
62463;SDS011;48512;48.552;9.380;2023-03-20T02:10:00;1.00;;;0.90;;
62463;SDS011;48512;48.552;9.380;2023-03-20T02:12:40;0.93;;;0.82;;
62463;SDS011;48512;48.552;9.380;2023-03-20T02:15:09;0.98;;;0.90;;
62463;SDS011;48512;48.552;9.380;2023-03-20T02:17:57;1.00;;;0.82;;
62463;SDS011;48512;48.552;9.380;2023-03-20T02:40:38;1.60;;;0.90;;
62463;SDS011;48512;48.552;9.380;2023-03-20T02:42:47;1.00;;;0.90;;
62463;SDS011;48512;48.552;9.380;2023-03-20T02:48:14;1.35;;;0.80;;
62463;SDS011;48512;48.552;9.380;2023-03-20T02:50:45;0.75;;;0.70;;
62463;SDS011;48512;48.552;9.380;2023-03-20T02:53:17;1.70;;;1.60;;
62463;SDS011;48512;48.552;9.380;2023-03-20T02:58:35;0.70;;;0.70;;
62463;SDS011;48512;48.552;9.380;2023-03-20T03:03:46;2.33;;;0.80;;
62463;SDS011;48512;48.552;9.380;2023-03-20T03:06:35;1.35;;;0.80;;
62463;SDS011;48512;48.552;9.380;2023-03-20T03:09:13;1.02;;;0.88;;
62463;SDS011;48512;48.552;9.380;2023-03-20T03:11:42;0.60;;;0.60;;
62463;SDS011;48512;48.552;9.380;2023-03-20T03:14:34;0.77;;;0.73;;
62463;SDS011;48512;48.552;9.380;2023-03-20T03:17:06;1.58;;;0.90;;
62463;SDS011;48512;48.552;9.380;2023-03-20T03:19:35;1.20;;;1.00;;
62463;SDS011;48512;48.552;9.380;2023-03-20T03:22:03;0.80;;;0.70;;
62463;SDS011;48512;48.552;9.380;2023-03-20T03:24:31;0.90;;;0.70;;
62463;SDS011;48512;48.552;9.380;2023-03-20T03:27:13;1.30;;;0.68;;
62463;SDS011;48512;48.552;9.380;2023-03-20T03:33:13;0.90;;;0.73;;
62463;SDS011;48512;48.552;9.380;2023-03-20T03:35:10;2.53;;;0.77;;
62463;SDS011;48512;48.552;9.380;2023-03-20T03:40:44;0.35;;;0.35;;
62463;SDS011;48512;48.552;9.380;2023-03-20T03:43:26;0.93;;;0.75;;
62463;SDS011;48512;48.552;9.380;2023-03-20T03:49:12;1.33;;;0.60;;
62463;SDS011;48512;48.552;9.380;2023-03-20T03:51:44;0.63;;;0.60;;
62463;SDS011;48512;48.552;9.380;2023-03-20T03:54:21;0.65;;;0.60;;
62463;SDS011;48512;48.552;9.380;2023-03-20T03:57:10;1.08;;;0.70;;
62463;SDS011;48512;48.552;9.380;2023-03-20T03:59:40;1.20;;;0.63;;
62463;SDS011;48512;48.552;9.380;2023-03-20T04:02:09;1.65;;;1.17;;
62463;SDS011;48512;48.552;9.380;2023-03-20T04:04:37;1.10;;;0.90;;
62463;SDS011;48512;48.552;9.380;2023-03-20T04:07:08;1.60;;;0.98;;
62463;SDS011;48512;48.552;9.380;2023-03-20T04:09:35;1.00;;;0.70;;
62463;SDS011;48512;48.552;9.380;2023-03-20T04:12:02;1.33;;;1.00;;
62463;SDS011;48512;48.552;9.380;2023-03-20T04:14:28;1.30;;;0.95;;
62463;SDS011;48512;48.552;9.380;2023-03-20T04:16:54;1.45;;;1.30;;
62463;SDS011;48512;48.552;9.380;2023-03-20T04:19:21;1.90;;;1.10;;
62463;SDS011;48512;48.552;9.380;2023-03-20T04:21:47;1.60;;;1.50;;
62463;SDS011;48512;48.552;9.380;2023-03-20T04:24:14;2.17;;;1.35;;
62463;SDS011;48512;48.552;9.380;2023-03-20T04:26:40;1.30;;;1.20;;
62463;SDS011;48512;48.552;9.380;2023-03-20T04:29:06;1.35;;;1.25;;
62463;SDS011;48512;48.552;9.380;2023-03-20T04:31:42;1.73;;;1.50;;
62463;SDS011;48512;48.552;9.380;2023-03-20T04:34:08;1.98;;;1.40;;
62463;SDS011;48512;48.552;9.380;2023-03-20T04:36:54;1.75;;;1.60;;
62463;SDS011;48512;48.552;9.380;2023-03-20T04:39:26;1.60;;;1.50;;
62463;SDS011;48512;48.552;9.380;2023-03-20T04:41:53;1.60;;;1.50;;
62463;SDS011;48512;48.552;9.380;2023-03-20T04:44:19;1.83;;;1.33;;
62463;SDS011;48512;48.552;9.380;2023-03-20T04:46:46;1.80;;;1.35;;
62463;SDS011;48512;48.552;9.380;2023-03-20T04:49:15;1.67;;;1.50;;
62463;SDS011;48512;48.552;9.380;2023-03-20T04:51:42;1.42;;;1.33;;
62463;SDS011;48512;48.552;9.380;2023-03-20T04:54:10;1.50;;;1.40;;
62463;SDS011;48512;48.552;9.380;2023-03-20T04:56:36;2.40;;;1.45;;
62463;SDS011;48512;48.552;9.380;2023-03-20T04:59:29;2.47;;;1.17;;
62463;SDS011;48512;48.552;9.380;2023-03-20T05:01:55;2.28;;;1.73;;
62463;SDS011;48512;48.552;9.380;2023-03-20T05:04:22;2.20;;;1.88;;
62463;SDS011;48512;48.552;9.380;2023-03-20T05:06:48;1.90;;;1.70;;
62463;SDS011;48512;48.552;9.380;2023-03-20T05:09:16;1.73;;;1.52;;
62463;SDS011;48512;48.552;9.380;2023-03-20T05:11:42;1.90;;;1.60;;
62463;SDS011;48512;48.552;9.380;2023-03-20T05:14:29;1.60;;;1.50;;
62463;SDS011;48512;48.552;9.380;2023-03-20T05:17:13;1.50;;;1.40;;
62463;SDS011;48512;48.552;9.380;2023-03-20T05:19:58;3.28;;;1.60;;
62463;SDS011;48512;48.552;9.380;2023-03-20T05:22:47;2.33;;;1.70;;
62463;SDS011;48512;48.552;9.380;2023-03-20T05:25:34;1.83;;;1.55;;
62463;SDS011;48512;48.552;9.380;2023-03-20T05:28:11;2.38;;;1.40;;
62463;SDS011;48512;48.552;9.380;2023-03-20T05:30:50;1.30;;;1.20;;
62463;SDS011;48512;48.552;9.380;2023-03-20T05:33:34;0.95;;;0.93;;
62463;SDS011;48512;48.552;9.380;2023-03-20T05:36:27;3.00;;;1.20;;
62463;SDS011;48512;48.552;9.380;2023-03-20T05:39:07;1.20;;;1.00;;
62463;SDS011;48512;48.552;9.380;2023-03-20T05:42:03;1.42;;;0.93;;
62463;SDS011;48512;48.552;9.380;2023-03-20T05:44:49;1.05;;;0.95;;
62463;SDS011;48512;48.552;9.380;2023-03-20T05:47:41;3.10;;;1.80;;
62463;SDS011;48512;48.552;9.380;2023-03-20T05:50:44;1.33;;;1.00;;
62463;SDS011;48512;48.552;9.380;2023-03-20T05:53:11;1.00;;;0.90;;
62463;SDS011;48512;48.552;9.380;2023-03-20T05:56:01;5.05;;;1.40;;
62463;SDS011;48512;48.552;9.380;2023-03-20T05:58:45;2.15;;;1.00;;
62463;SDS011;48512;48.552;9.380;2023-03-20T06:01:31;1.65;;;1.20;;
62463;SDS011;48512;48.552;9.380;2023-03-20T06:04:20;1.05;;;0.82;;
62463;SDS011;48512;48.552;9.380;2023-03-20T06:07:02;1.95;;;0.95;;
62463;SDS011;48512;48.552;9.380;2023-03-20T06:09:29;1.48;;;0.82;;
62463;SDS011;48512;48.552;9.380;2023-03-20T06:11:57;2.58;;;1.40;;
62463;SDS011;48512;48.552;9.380;2023-03-20T06:14:23;3.25;;;1.60;;
62463;SDS011;48512;48.552;9.380;2023-03-20T06:16:55;1.42;;;0.95;;
62463;SDS011;48512;48.552;9.380;2023-03-20T06:19:22;1.77;;;1.08;;
62463;SDS011;48512;48.552;9.380;2023-03-20T06:21:49;1.00;;;0.90;;
62463;SDS011;48512;48.552;9.380;2023-03-20T06:24:18;1.15;;;0.93;;
62463;SDS011;48512;48.552;9.380;2023-03-20T06:26:45;1.42;;;0.80;;
62463;SDS011;48512;48.552;9.380;2023-03-20T06:29:12;1.80;;;1.08;;
62463;SDS011;48512;48.552;9.380;2023-03-20T06:31:39;9.07;;;1.65;;
62463;SDS011;48512;48.552;9.380;2023-03-20T06:34:09;1.45;;;1.00;;
62463;SDS011;48512;48.552;9.380;2023-03-20T06:36:41;1.10;;;0.75;;
62463;SDS011;48512;48.552;9.380;2023-03-20T06:39:14;1.00;;;0.68;;
62463;SDS011;48512;48.552;9.380;2023-03-20T06:41:41;2.90;;;0.70;;
62463;SDS011;48512;48.552;9.380;2023-03-20T06:44:09;1.38;;;0.70;;
62463;SDS011;48512;48.552;9.380;2023-03-20T06:46:54;3.47;;;1.33;;
62463;SDS011;48512;48.552;9.380;2023-03-20T06:49:21;10.02;;;2.45;;
62463;SDS011;48512;48.552;9.380;2023-03-20T06:51:47;2.30;;;1.30;;
62463;SDS011;48512;48.552;9.380;2023-03-20T06:54:20;0.93;;;0.70;;
62463;SDS011;48512;48.552;9.380;2023-03-20T06:56:46;0.93;;;0.70;;
62463;SDS011;48512;48.552;9.380;2023-03-20T06:59:12;1.45;;;1.10;;
62463;SDS011;48512;48.552;9.380;2023-03-20T07:01:39;2.72;;;1.45;;
62463;SDS011;48512;48.552;9.380;2023-03-20T07:04:06;2.22;;;1.20;;
62463;SDS011;48512;48.552;9.380;2023-03-20T07:06:40;2.10;;;1.17;;
62463;SDS011;48512;48.552;9.380;2023-03-20T07:09:08;3.53;;;1.13;;
62463;SDS011;48512;48.552;9.380;2023-03-20T07:11:35;1.90;;;1.63;;
62463;SDS011;48512;48.552;9.380;2023-03-20T07:14:02;1.30;;;1.02;;
62463;SDS011;48512;48.552;9.380;2023-03-20T07:16:41;3.80;;;1.08;;
62463;SDS011;48512;48.552;9.380;2023-03-20T07:19:07;1.77;;;1.23;;
62463;SDS011;48512;48.552;9.380;2023-03-20T07:21:38;1.88;;;1.05;;
62463;SDS011;48512;48.552;9.380;2023-03-20T07:24:04;1.40;;;0.90;;
62463;SDS011;48512;48.552;9.380;2023-03-20T07:26:32;1.67;;;1.00;;
62463;SDS011;48512;48.552;9.380;2023-03-20T07:28:58;1.50;;;0.90;;
62463;SDS011;48512;48.552;9.380;2023-03-20T07:31:26;1.05;;;1.05;;
62463;SDS011;48512;48.552;9.380;2023-03-20T07:34:14;1.65;;;1.00;;
62463;SDS011;48512;48.552;9.380;2023-03-20T07:36:41;2.13;;;1.13;;
62463;SDS011;48512;48.552;9.380;2023-03-20T07:39:08;3.75;;;1.45;;
62463;SDS011;48512;48.552;9.380;2023-03-20T07:41:37;2.78;;;1.50;;
62463;SDS011;48512;48.552;9.380;2023-03-20T07:44:07;1.65;;;1.23;;
62463;SDS011;48512;48.552;9.380;2023-03-20T07:46:51;1.52;;;1.10;;
62463;SDS011;48512;48.552;9.380;2023-03-20T07:49:22;1.90;;;1.30;;
62463;SDS011;48512;48.552;9.380;2023-03-20T07:51:48;2.03;;;1.20;;
62463;SDS011;48512;48.552;9.380;2023-03-20T07:54:16;1.92;;;0.88;;
62463;SDS011;48512;48.552;9.380;2023-03-20T07:56:42;3.13;;;0.95;;
62463;SDS011;48512;48.552;9.380;2023-03-20T07:59:09;2.42;;;0.73;;
62463;SDS011;48512;48.552;9.380;2023-03-20T08:01:35;1.35;;;1.00;;
62463;SDS011;48512;48.552;9.380;2023-03-20T08:04:01;1.20;;;1.10;;
62463;SDS011;48512;48.552;9.380;2023-03-20T08:06:27;2.45;;;1.60;;
62463;SDS011;48512;48.552;9.380;2023-03-20T08:08:54;2.88;;;1.52;;
62463;SDS011;48512;48.552;9.380;2023-03-20T08:11:21;2.42;;;1.25;;
62463;SDS011;48512;48.552;9.380;2023-03-20T08:13:48;1.33;;;0.85;;
62463;SDS011;48512;48.552;9.380;2023-03-20T08:16:14;1.20;;;1.10;;
62463;SDS011;48512;48.552;9.380;2023-03-20T08:18:41;2.53;;;0.90;;
62463;SDS011;48512;48.552;9.380;2023-03-20T08:21:07;1.23;;;0.75;;
62463;SDS011;48512;48.552;9.380;2023-03-20T08:23:34;1.20;;;0.90;;
62463;SDS011;48512;48.552;9.380;2023-03-20T08:26:00;1.00;;;0.90;;
62463;SDS011;48512;48.552;9.380;2023-03-20T08:28:26;1.45;;;0.90;;
62463;SDS011;48512;48.552;9.380;2023-03-20T08:30:52;1.55;;;1.10;;
62463;SDS011;48512;48.552;9.380;2023-03-20T08:33:18;0.90;;;0.90;;
62463;SDS011;48512;48.552;9.380;2023-03-20T08:35:54;1.08;;;0.90;;
62463;SDS011;48512;48.552;9.380;2023-03-20T08:38:21;0.85;;;0.80;;
62463;SDS011;48512;48.552;9.380;2023-03-20T08:40:48;0.90;;;0.90;;
62463;SDS011;48512;48.552;9.380;2023-03-20T08:43:14;0.90;;;0.80;;
62463;SDS011;48512;48.552;9.380;2023-03-20T08:45:40;1.00;;;1.00;;
62463;SDS011;48512;48.552;9.380;2023-03-20T08:48:06;2.55;;;1.10;;
62463;SDS011;48512;48.552;9.380;2023-03-20T08:50:33;1.90;;;1.20;;
62463;SDS011;48512;48.552;9.380;2023-03-20T08:52:59;3.42;;;1.00;;
62463;SDS011;48512;48.552;9.380;2023-03-20T08:55:25;1.50;;;1.40;;
62463;SDS011;48512;48.552;9.380;2023-03-20T08:57:52;1.58;;;1.20;;
62463;SDS011;48512;48.552;9.380;2023-03-20T09:00:19;2.08;;;1.08;;
62463;SDS011;48512;48.552;9.380;2023-03-20T09:02:46;0.95;;;0.95;;
62463;SDS011;48512;48.552;9.380;2023-03-20T09:05:12;0.93;;;0.90;;
62463;SDS011;48512;48.552;9.380;2023-03-20T09:07:38;2.03;;;1.05;;
62463;SDS011;48512;48.552;9.380;2023-03-20T09:10:04;1.77;;;1.00;;
62463;SDS011;48512;48.552;9.380;2023-03-20T09:12:31;1.10;;;1.00;;
62463;SDS011;48512;48.552;9.380;2023-03-20T09:14:57;1.25;;;1.15;;
62463;SDS011;48512;48.552;9.380;2023-03-20T09:17:24;1.35;;;1.05;;
62463;SDS011;48512;48.552;9.380;2023-03-20T09:19:51;5.85;;;1.25;;
62463;SDS011;48512;48.552;9.380;2023-03-20T09:22:17;3.40;;;1.42;;
62463;SDS011;48512;48.552;9.380;2023-03-20T09:24:43;3.45;;;1.30;;
62463;SDS011;48512;48.552;9.380;2023-03-20T09:27:10;1.25;;;1.15;;
62463;SDS011;48512;48.552;9.380;2023-03-20T09:29:41;1.42;;;1.30;;
62463;SDS011;48512;48.552;9.380;2023-03-20T09:32:11;2.47;;;1.10;;
62463;SDS011;48512;48.552;9.380;2023-03-20T09:34:39;1.80;;;1.13;;
62463;SDS011;48512;48.552;9.380;2023-03-20T09:37:05;1.38;;;1.27;;
62463;SDS011;48512;48.552;9.380;2023-03-20T09:39:32;2.30;;;1.00;;
62463;SDS011;48512;48.552;9.380;2023-03-20T09:41:59;2.08;;;1.08;;
62463;SDS011;48512;48.552;9.380;2023-03-20T09:50:37;1.65;;;1.33;;
62463;SDS011;48512;48.552;9.380;2023-03-20T09:55:47;1.95;;;1.20;;
62463;SDS011;48512;48.552;9.380;2023-03-20T09:58:17;1.58;;;1.10;;
62463;SDS011;48512;48.552;9.380;2023-03-20T10:00:59;2.80;;;1.08;;
62463;SDS011;48512;48.552;9.380;2023-03-20T10:03:31;1.58;;;1.27;;
62463;SDS011;48512;48.552;9.380;2023-03-20T10:06:13;1.70;;;1.10;;
62463;SDS011;48512;48.552;9.380;2023-03-20T10:08:41;2.10;;;1.10;;
62463;SDS011;48512;48.552;9.380;2023-03-20T10:19:28;1.67;;;1.10;;
62463;SDS011;48512;48.552;9.380;2023-03-20T10:22:01;1.77;;;0.90;;
62463;SDS011;48512;48.552;9.380;2023-03-20T10:24:28;0.88;;;0.80;;
62463;SDS011;48512;48.552;9.380;2023-03-20T10:26:57;2.53;;;1.03;;
62463;SDS011;48512;48.552;9.380;2023-03-20T10:32:37;1.15;;;1.05;;
62463;SDS011;48512;48.552;9.380;2023-03-20T10:40:36;1.20;;;1.10;;
62463;SDS011;48512;48.552;9.380;2023-03-20T10:43:19;2.55;;;1.75;;
62463;SDS011;48512;48.552;9.380;2023-03-20T10:45:53;4.25;;;1.83;;
62463;SDS011;48512;48.552;9.380;2023-03-20T10:48:28;1.83;;;1.45;;
62463;SDS011;48512;48.552;9.380;2023-03-20T10:50:59;1.40;;;1.30;;
62463;SDS011;48512;48.552;9.380;2023-03-20T10:53:34;1.30;;;1.20;;
62463;SDS011;48512;48.552;9.380;2023-03-20T10:56:09;1.88;;;1.20;;
62463;SDS011;48512;48.552;9.380;2023-03-20T10:58:40;1.83;;;1.48;;
62463;SDS011;48512;48.552;9.380;2023-03-20T11:01:09;4.45;;;1.60;;
62463;SDS011;48512;48.552;9.380;2023-03-20T11:03:35;2.05;;;1.67;;
62463;SDS011;48512;48.552;9.380;2023-03-20T11:06:26;1.75;;;1.42;;
62463;SDS011;48512;48.552;9.380;2023-03-20T11:08:53;2.72;;;1.83;;
62463;SDS011;48512;48.552;9.380;2023-03-20T11:11:27;2.95;;;1.77;;
62463;SDS011;48512;48.552;9.380;2023-03-20T11:14:08;3.88;;;2.13;;
62463;SDS011;48512;48.552;9.380;2023-03-20T11:16:41;2.75;;;1.88;;
62463;SDS011;48512;48.552;9.380;2023-03-20T11:19:09;3.20;;;2.40;;
62463;SDS011;48512;48.552;9.380;2023-03-20T11:21:43;2.38;;;1.80;;
62463;SDS011;48512;48.552;9.380;2023-03-20T11:24:23;1.85;;;1.40;;
62463;SDS011;48512;48.552;9.380;2023-03-20T11:27:45;2.70;;;1.35;;
62463;SDS011;48512;48.552;9.380;2023-03-20T11:29:53;3.55;;;1.90;;
62463;SDS011;48512;48.552;9.380;2023-03-20T11:34:50;2.90;;;1.70;;
62463;SDS011;48512;48.552;9.380;2023-03-20T11:39:52;2.72;;;1.92;;
62463;SDS011;48512;48.552;9.380;2023-03-20T11:42:23;3.08;;;2.08;;
62463;SDS011;48512;48.552;9.380;2023-03-20T11:44:58;2.42;;;1.70;;
62463;SDS011;48512;48.552;9.380;2023-03-20T11:47:28;1.65;;;1.50;;
62463;SDS011;48512;48.552;9.380;2023-03-20T11:49:59;2.15;;;1.58;;
62463;SDS011;48512;48.552;9.380;2023-03-20T11:54:57;3.80;;;1.67;;
62463;SDS011;48512;48.552;9.380;2023-03-20T11:57:30;1.65;;;1.48;;
62463;SDS011;48512;48.552;9.380;2023-03-20T11:59:59;2.53;;;1.60;;
62463;SDS011;48512;48.552;9.380;2023-03-20T12:02:30;1.52;;;1.20;;
62463;SDS011;48512;48.552;9.380;2023-03-20T12:05:00;2.05;;;1.35;;
62463;SDS011;48512;48.552;9.380;2023-03-20T12:07:27;2.83;;;1.33;;
62463;SDS011;48512;48.552;9.380;2023-03-20T12:09:58;1.70;;;1.30;;
62463;SDS011;48512;48.552;9.380;2023-03-20T12:22:59;2.60;;;1.15;;
62463;SDS011;48512;48.552;9.380;2023-03-20T12:25:34;1.30;;;1.20;;
62463;SDS011;48512;48.552;9.380;2023-03-20T12:28:10;1.40;;;1.30;;
62463;SDS011;48512;48.552;9.380;2023-03-20T12:31:01;2.42;;;1.20;;
62463;SDS011;48512;48.552;9.380;2023-03-20T12:33:43;1.90;;;1.45;;
62463;SDS011;48512;48.552;9.380;2023-03-20T12:36:20;1.98;;;1.38;;
62463;SDS011;48512;48.552;9.380;2023-03-20T12:38:54;2.05;;;1.70;;
62463;SDS011;48512;48.552;9.380;2023-03-20T12:57:17;11.68;;;2.83;;
62463;SDS011;48512;48.552;9.380;2023-03-20T13:06:03;1.90;;;1.50;;
62463;SDS011;48512;48.552;9.380;2023-03-20T13:08:58;6.55;;;1.70;;
62463;SDS011;48512;48.552;9.380;2023-03-20T13:14:01;2.00;;;1.65;;
62463;SDS011;48512;48.552;9.380;2023-03-20T13:22:07;2.28;;;1.42;;
62463;SDS011;48512;48.552;9.380;2023-03-20T13:27:40;3.35;;;2.08;;
62463;SDS011;48512;48.552;9.380;2023-03-20T13:30:26;3.55;;;1.90;;
62463;SDS011;48512;48.552;9.380;2023-03-20T13:38:49;2.92;;;2.00;;
62463;SDS011;48512;48.552;9.380;2023-03-20T13:41:21;4.22;;;2.30;;
62463;SDS011;48512;48.552;9.380;2023-03-20T13:43:53;3.42;;;2.10;;
62463;SDS011;48512;48.552;9.380;2023-03-20T13:46:24;6.55;;;2.28;;
62463;SDS011;48512;48.552;9.380;2023-03-20T13:48:57;3.97;;;2.45;;
62463;SDS011;48512;48.552;9.380;2023-03-20T13:51:38;3.20;;;2.50;;
62463;SDS011;48512;48.552;9.380;2023-03-20T13:56:52;3.70;;;2.30;;
62463;SDS011;48512;48.552;9.380;2023-03-20T14:04:45;4.88;;;2.42;;
62463;SDS011;48512;48.552;9.380;2023-03-20T14:07:32;3.10;;;2.10;;
62463;SDS011;48512;48.552;9.380;2023-03-20T14:15:33;3.13;;;2.30;;
62463;SDS011;48512;48.552;9.380;2023-03-20T14:18:02;4.00;;;2.50;;
62463;SDS011;48512;48.552;9.380;2023-03-20T14:20:40;3.78;;;2.53;;
62463;SDS011;48512;48.552;9.380;2023-03-20T14:23:17;10.50;;;3.00;;
62463;SDS011;48512;48.552;9.380;2023-03-20T14:25:46;4.95;;;2.45;;
62463;SDS011;48512;48.552;9.380;2023-03-20T14:35:48;5.53;;;2.40;;
62463;SDS011;48512;48.552;9.380;2023-03-20T14:41:04;4.60;;;2.20;;
62463;SDS011;48512;48.552;9.380;2023-03-20T14:46:39;5.57;;;3.50;;
62463;SDS011;48512;48.552;9.380;2023-03-20T14:51:54;5.70;;;2.63;;
62463;SDS011;48512;48.552;9.380;2023-03-20T14:54:27;4.28;;;2.58;;
62463;SDS011;48512;48.552;9.380;2023-03-20T14:56:55;11.82;;;3.65;;
62463;SDS011;48512;48.552;9.380;2023-03-20T14:59:43;5.50;;;2.70;;
62463;SDS011;48512;48.552;9.380;2023-03-20T15:02:22;5.13;;;2.95;;
62463;SDS011;48512;48.552;9.380;2023-03-20T15:04:51;10.40;;;3.40;;
62463;SDS011;48512;48.552;9.380;2023-03-20T15:07:24;8.65;;;3.00;;
62463;SDS011;48512;48.552;9.380;2023-03-20T15:09:54;5.70;;;2.50;;
62463;SDS011;48512;48.552;9.380;2023-03-20T15:12:29;4.75;;;2.40;;
62463;SDS011;48512;48.552;9.380;2023-03-20T15:15:03;6.68;;;2.83;;
62463;SDS011;48512;48.552;9.380;2023-03-20T15:17:39;4.93;;;2.80;;
62463;SDS011;48512;48.552;9.380;2023-03-20T15:20:30;4.55;;;2.92;;
62463;SDS011;48512;48.552;9.380;2023-03-20T15:23:00;10.10;;;2.95;;
62463;SDS011;48512;48.552;9.380;2023-03-20T15:25:31;5.25;;;2.47;;
62463;SDS011;48512;48.552;9.380;2023-03-20T15:28:06;4.55;;;2.40;;
62463;SDS011;48512;48.552;9.380;2023-03-20T15:30:35;4.50;;;2.55;;
62463;SDS011;48512;48.552;9.380;2023-03-20T15:33:03;3.70;;;2.30;;
62463;SDS011;48512;48.552;9.380;2023-03-20T15:35:30;6.50;;;3.45;;
62463;SDS011;48512;48.552;9.380;2023-03-20T15:37:57;4.40;;;2.40;;
62463;SDS011;48512;48.552;9.380;2023-03-20T15:40:31;3.15;;;2.30;;
62463;SDS011;48512;48.552;9.380;2023-03-20T15:45:47;3.70;;;2.67;;
62463;SDS011;48512;48.552;9.380;2023-03-20T15:48:16;4.40;;;3.00;;
62463;SDS011;48512;48.552;9.380;2023-03-20T15:50:46;9.13;;;3.63;;
62463;SDS011;48512;48.552;9.380;2023-03-20T15:53:17;5.32;;;3.10;;
62463;SDS011;48512;48.552;9.380;2023-03-20T15:55:49;4.38;;;2.30;;
62463;SDS011;48512;48.552;9.380;2023-03-20T15:58:17;3.22;;;2.30;;
62463;SDS011;48512;48.552;9.380;2023-03-20T16:00:47;8.82;;;3.35;;
62463;SDS011;48512;48.552;9.380;2023-03-20T16:03:15;4.50;;;2.58;;
62463;SDS011;48512;48.552;9.380;2023-03-20T16:13:38;7.47;;;3.22;;
62463;SDS011;48512;48.552;9.380;2023-03-20T16:16:10;8.77;;;3.92;;
62463;SDS011;48512;48.552;9.380;2023-03-20T16:18:40;11.55;;;5.68;;
62463;SDS011;48512;48.552;9.380;2023-03-20T16:21:08;12.98;;;4.85;;
62463;SDS011;48512;48.552;9.380;2023-03-20T16:23:42;5.00;;;3.03;;
62463;SDS011;48512;48.552;9.380;2023-03-20T16:26:12;5.85;;;3.03;;
62463;SDS011;48512;48.552;9.380;2023-03-20T16:28:44;4.00;;;2.67;;
62463;SDS011;48512;48.552;9.380;2023-03-20T16:31:13;6.50;;;2.97;;
62463;SDS011;48512;48.552;9.380;2023-03-20T16:33:43;5.65;;;2.60;;
62463;SDS011;48512;48.552;9.380;2023-03-20T16:36:16;10.32;;;3.67;;
62463;SDS011;48512;48.552;9.380;2023-03-20T16:38:56;3.30;;;2.53;;
62463;SDS011;48512;48.552;9.380;2023-03-20T16:41:32;27.92;;;5.55;;
62463;SDS011;48512;48.552;9.380;2023-03-20T16:44:21;7.28;;;3.20;;
62463;SDS011;48512;48.552;9.380;2023-03-20T16:51:52;4.25;;;2.88;;
62463;SDS011;48512;48.552;9.380;2023-03-20T16:54:22;5.97;;;2.78;;
62463;SDS011;48512;48.552;9.380;2023-03-20T16:56:53;15.52;;;3.00;;
62463;SDS011;48512;48.552;9.380;2023-03-20T16:59:23;11.52;;;2.97;;
62463;SDS011;48512;48.552;9.380;2023-03-20T17:01:51;7.13;;;3.47;;
62463;SDS011;48512;48.552;9.380;2023-03-20T17:06:58;12.20;;;3.40;;
62463;SDS011;48512;48.552;9.380;2023-03-20T17:09:29;8.18;;;4.10;;
62463;SDS011;48512;48.552;9.380;2023-03-20T17:11:58;16.20;;;5.63;;
62463;SDS011;48512;48.552;9.380;2023-03-20T17:14:37;9.82;;;5.38;;
62463;SDS011;48512;48.552;9.380;2023-03-20T17:17:10;9.68;;;4.88;;
62463;SDS011;48512;48.552;9.380;2023-03-20T17:19:47;9.32;;;4.07;;
62463;SDS011;48512;48.552;9.380;2023-03-20T17:22:16;9.10;;;5.00;;
62463;SDS011;48512;48.552;9.380;2023-03-20T17:24:44;10.30;;;4.07;;
62463;SDS011;48512;48.552;9.380;2023-03-20T17:27:11;8.20;;;5.55;;
62463;SDS011;48512;48.552;9.380;2023-03-20T17:29:38;9.30;;;5.30;;
62463;SDS011;48512;48.552;9.380;2023-03-20T17:32:15;11.15;;;5.63;;
62463;SDS011;48512;48.552;9.380;2023-03-20T17:34:48;9.27;;;5.22;;
62463;SDS011;48512;48.552;9.380;2023-03-20T17:37:21;7.43;;;3.50;;
62463;SDS011;48512;48.552;9.380;2023-03-20T17:39:49;7.18;;;3.60;;
62463;SDS011;48512;48.552;9.380;2023-03-20T17:44:56;13.57;;;6.10;;
62463;SDS011;48512;48.552;9.380;2023-03-20T17:47:23;11.90;;;5.25;;
62463;SDS011;48512;48.552;9.380;2023-03-20T17:49:52;10.70;;;5.05;;
62463;SDS011;48512;48.552;9.380;2023-03-20T17:52:20;11.73;;;4.82;;
62463;SDS011;48512;48.552;9.380;2023-03-20T17:54:48;11.10;;;5.33;;
62463;SDS011;48512;48.552;9.380;2023-03-20T17:59:59;18.80;;;9.38;;
62463;SDS011;48512;48.552;9.380;2023-03-20T18:02:25;19.70;;;9.15;;
62463;SDS011;48512;48.552;9.380;2023-03-20T18:04:52;17.75;;;7.72;;
62463;SDS011;48512;48.552;9.380;2023-03-20T18:07:18;15.38;;;6.68;;
62463;SDS011;48512;48.552;9.380;2023-03-20T18:09:45;10.50;;;4.75;;
62463;SDS011;48512;48.552;9.380;2023-03-20T18:12:16;7.05;;;4.22;;
62463;SDS011;48512;48.552;9.380;2023-03-20T18:14:44;23.67;;;8.50;;
62463;SDS011;48512;48.552;9.380;2023-03-20T18:17:11;27.45;;;11.77;;
62463;SDS011;48512;48.552;9.380;2023-03-20T18:19:38;32.13;;;12.65;;
62463;SDS011;48512;48.552;9.380;2023-03-20T18:22:07;26.77;;;10.35;;
62463;SDS011;48512;48.552;9.380;2023-03-20T18:24:34;23.23;;;12.27;;